Time;durP1;ratioP1;P1;durP2;ratioP2;P2;SDS_P1;SDS_P2;PMS_P1;PMS_P2;Temp;Humidity;BMP_temperature;BMP_pressure;BME280_temperature;BME280_humidity;BME280_pressure;Samples;Min_cycle;Max_cycle;Signal;HPM_P1;HPM_P2
2023/10/10 00:01:45;;;;;;;3.70;1.50;;;;;;;1.49;100.00;100438.86;109154;1253;73950;-54
2023/10/10 00:04:13;;;;;;;4.20;1.70;;;;;;;1.45;100.00;100443.46;109147;1253;65735;-54
2023/10/10 00:06:40;;;;;;;4.00;1.80;;;;;;;1.41;100.00;100443.04;109267;1253;71743;-54
2023/10/10 00:09:11;;;;;;;6.50;2.00;;;;;;;1.37;100.00;100446.46;109282;1253;59450;-53
2023/10/10 00:11:41;;;;;;;3.60;2.00;;;;;;;1.34;100.00;100445.52;109232;1254;58791;-54
2023/10/10 00:14:18;;;;;;;4.50;1.90;;;;;;;1.32;100.00;100446.36;109150;1254;73885;-54
2023/10/10 00:16:54;;;;;;;3.30;1.70;;;;;;;1.29;100.00;100448.63;109097;1254;67063;-57
2023/10/10 00:19:29;;;;;;;3.60;1.50;;;;;;;1.28;100.00;100444.11;109269;1253;72787;-54
2023/10/10 00:21:57;;;;;;;3.80;1.50;;;;;;;1.27;100.00;100446.10;109265;1253;58154;-54
2023/10/10 00:24:31;;;;;;;4.10;1.80;;;;;;;1.26;100.00;100445.65;108998;1252;390969;-57
2023/10/10 00:27:06;;;;;;;3.30;1.30;;;;;;;1.28;100.00;100441.19;109177;1253;72630;-53
2023/10/10 00:29:33;;;;;;;6.20;1.60;;;;;;;1.29;100.00;100436.34;109147;1256;65736;-54
2023/10/10 00:32:13;;;;;;;4.30;1.90;;;;;;;1.25;100.00;100435.75;109188;1253;72769;-54
2023/10/10 00:34:42;;;;;;;5.60;2.30;;;;;;;1.19;100.00;100445.08;109180;1253;59264;-53
2023/10/10 00:37:13;;;;;;;5.10;2.10;;;;;;;1.17;100.00;100441.69;109140;1253;58836;-54
2023/10/10 00:39:40;;;;;;;3.60;1.70;;;;;;;1.13;100.00;100446.77;109181;1254;73956;-54
2023/10/10 00:42:19;;;;;;;3.50;1.90;;;;;;;1.10;100.00;100447.33;109136;1256;65628;-55
2023/10/10 00:44:48;;;;;;;6.40;2.30;;;;;;;1.10;100.00;100448.71;109224;1253;72363;-55
2023/10/10 00:47:16;;;;;;;4.20;1.90;;;;;;;1.12;100.00;100447.36;109152;1253;58241;-54
2023/10/10 00:49:45;;;;;;;3.80;1.70;;;;;;;1.13;100.00;100446.27;109001;1261;58767;-57
2023/10/10 00:52:15;;;;;;;4.30;1.70;;;;;;;1.12;100.00;100448.02;109127;1255;74015;-54
2023/10/10 00:54:45;;;;;;;3.20;1.80;;;;;;;1.10;100.00;100449.58;109210;1254;67246;-54
2023/10/10 00:57:16;;;;;;;7.00;2.00;;;;;;;1.08;100.00;100451.30;109239;1253;72791;-55
2023/10/10 00:59:48;;;;;;;4.60;2.00;;;;;;;1.04;100.00;100453.30;109023;1253;59460;-57
2023/10/10 01:02:20;;;;;;;3.70;1.60;;;;;;;0.98;100.00;100456.64;109187;1253;60538;-55
2023/10/10 01:04:55;;;;;;;4.80;2.00;;;;;;;0.92;100.00;100457.10;109169;1258;73868;-54
2023/10/10 01:07:25;;;;;;;5.00;1.80;;;;;;;0.86;100.00;100453.27;109075;1253;65804;-58
2023/10/10 01:09:56;;;;;;;3.60;1.70;;;;;;;0.81;100.00;100453.87;109163;1253;71940;-54
2023/10/10 01:12:25;;;;;;;3.30;1.20;;;;;;;0.75;100.00;100454.11;109128;1253;59768;-54
2023/10/10 01:14:54;;;;;;;4.60;1.90;;;;;;;0.71;100.00;100453.00;109188;1253;60117;-53
2023/10/10 01:17:29;;;;;;;4.00;1.70;;;;;;;0.67;100.00;100450.75;109174;1253;72673;-56
2023/10/10 01:20:24;;;;;;;4.80;1.60;;;;;;;0.63;100.00;100445.29;109153;1253;67384;-54
2023/10/10 01:22:56;;;;;;;4.30;1.80;;;;;;;0.61;100.00;100443.50;109092;1254;72815;-54
2023/10/10 01:28:03;;;;;;;3.80;1.60;;;;;;;0.71;100.00;100443.30;109106;1256;60084;-54
2023/10/10 01:33:22;;;;;;;4.40;1.80;;;;;;;0.79;100.00;100443.21;109137;1254;67007;-54
2023/10/10 01:35:52;;;;;;;4.20;1.60;;;;;;;0.80;100.00;100442.85;109009;1256;71753;-53
2023/10/10 01:38:32;;;;;;;4.60;1.70;;;;;;;0.78;100.00;100436.63;109034;1254;59855;-54
2023/10/10 01:41:04;;;;;;;3.50;1.70;;;;;;;0.76;100.00;100440.00;109135;1256;58755;-54
2023/10/10 01:43:32;;;;;;;3.90;1.70;;;;;;;0.75;100.00;100444.52;109130;1256;73969;-54
2023/10/10 01:46:15;;;;;;;4.70;1.80;;;;;;;0.72;100.00;100445.75;109152;1255;65827;-54
2023/10/10 01:48:43;;;;;;;3.60;1.50;;;;;;;0.71;100.00;100444.14;109101;1256;72774;-54
2023/10/10 01:51:15;;;;;;;4.80;2.00;;;;;;;0.71;100.00;100439.84;109058;1256;60924;-54
2023/10/10 01:53:43;;;;;;;3.70;1.70;;;;;;;0.72;100.00;100442.84;109048;1256;60673;-54
2023/10/10 01:56:13;;;;;;;4.20;1.50;;;;;;;0.73;100.00;100439.04;109073;1256;74271;-53
2023/10/10 01:58:41;;;;;;;4.10;2.30;;;;;;;0.73;100.00;100442.44;109063;1256;65511;-54
2023/10/10 02:01:19;;;;;;;4.30;1.60;;;;;;;0.70;100.00;100448.15;109102;1256;72681;-55
2023/10/10 02:03:47;;;;;;;4.00;1.90;;;;;;;0.64;100.00;100452.03;109043;1260;61280;-53
2023/10/10 02:06:25;;;;;;;5.20;1.60;;;;;;;0.58;100.00;100451.62;109062;1256;58739;-54
2023/10/10 02:09:03;;;;;;;4.00;1.80;;;;;;;0.52;100.00;100455.45;109061;1256;73886;-54
2023/10/10 02:11:31;;;;;;;3.20;1.50;;;;;;;0.46;100.00;100454.73;109057;1255;67146;-54
2023/10/10 02:13:59;;;;;;;5.60;3.00;;;;;;;0.38;100.00;100456.20;109135;1256;74851;-53
2023/10/10 02:16:35;;;;;;;3.50;1.80;;;;;;;0.29;100.00;100461.11;108950;1256;58449;-53
2023/10/10 02:19:15;;;;;;;3.60;1.70;;;;;;;0.24;100.00;100461.16;109077;1259;59549;-57
2023/10/10 02:21:44;;;;;;;7.00;2.10;;;;;;;0.24;100.00;100459.39;109041;1254;73351;-54
2023/10/10 02:26:58;;;;;;;4.10;1.70;;;;;;;0.28;100.00;100463.38;109172;1254;72265;-54
2023/10/10 02:32:09;;;;;;;6.70;2.40;;;;;;;0.27;100.00;100466.21;109193;1254;60027;-54
2023/10/10 02:40:06;;;;;;;4.30;2.10;;;;;;;0.19;100.00;100469.88;109153;1254;72662;-55
2023/10/10 02:42:33;;;;;;;6.60;2.30;;;;;;;0.13;100.00;100472.01;109135;1254;58509;-54
2023/10/10 02:45:02;;;;;;;3.70;1.70;;;;;;;0.05;100.00;100470.66;109324;1253;58954;-55
2023/10/10 02:47:32;;;;;;;4.40;2.20;;;;;;;-0.02;100.00;100463.70;109152;1254;71655;-54
2023/10/10 02:50:10;;;;;;;5.20;2.10;;;;;;;-0.03;100.00;100465.16;109181;1253;65643;-55
2023/10/10 02:52:45;;;;;;;3.90;2.10;;;;;;;-0.06;100.00;100467.38;109370;1253;72680;-55
2023/10/10 02:55:16;;;;;;;5.50;2.00;;;;;;;-0.05;100.00;100467.84;109396;1253;59491;-54
2023/10/10 02:57:43;;;;;;;7.80;2.70;;;;;;;0.01;100.00;100466.60;109228;1253;60521;-55
2023/10/10 03:00:15;;;;;;;5.70;2.30;;;;;;;0.05;100.00;100468.64;109220;1253;72002;-58
2023/10/10 03:02:53;;;;;;;7.00;2.40;;;;;;;0.06;100.00;100467.35;109386;1253;65963;-54
2023/10/10 03:05:39;;;;;;;6.70;3.20;;;;;;;0.07;100.00;100467.80;109196;1253;71532;-55
2023/10/10 03:08:19;;;;;;;4.60;2.20;;;;;;;0.09;100.00;100472.31;109306;1254;59723;-55
2023/10/10 03:10:53;;;;;;;5.10;2.30;;;;;;;0.13;100.00;100475.91;109340;1254;58861;-55
2023/10/10 03:13:30;;;;;;;7.00;2.70;;;;;;;0.18;100.00;100480.03;109156;1253;72610;-55
2023/10/10 03:27:36;;;;;;;5.60;2.70;;;;;;;0.43;100.00;100484.04;109140;1258;73926;-55
2023/10/10 03:29:47;;;;;;;6.80;2.70;;;;;;;0.47;100.00;100482.70;109261;1254;65748;-54
2023/10/10 03:32:59;;;;;;;5.00;2.50;;;;;;;0.50;100.00;100483.69;109027;1253;71356;-55
2023/10/10 03:35:17;;;;;;;6.10;2.40;;;;;;;0.52;100.00;100490.89;109171;1254;59349;-55
2023/10/10 03:37:54;;;;;;;7.80;2.90;;;;;;;0.53;100.00;100491.33;109104;1253;60133;-58
2023/10/10 03:40:45;;;;;;;6.20;3.10;;;;;;;0.55;100.00;100497.86;109146;1254;72599;-54
2023/10/10 05:25:50;;;;;;;8.50;4.50;;;;;;;6.46;100.00;100489.30;109463;1251;58178;-55
2023/10/10 05:28:19;;;;;;;8.40;4.10;;;;;;;6.52;100.00;100490.80;109463;1251;58814;-55
2023/10/10 05:30:47;;;;;;;9.10;4.40;;;;;;;6.64;100.00;100489.94;109433;1253;72655;-57
2023/10/10 05:33:19;;;;;;;9.80;5.00;;;;;;;6.80;100.00;100487.88;109226;1254;66162;-54
2023/10/10 05:35:49;;;;;;;7.70;4.20;;;;;;;7.00;100.00;100488.41;109215;1253;71138;-55
2023/10/10 05:38:19;;;;;;;6.40;3.60;;;;;;;7.22;100.00;100487.45;109214;1255;59298;-55
2023/10/10 05:40:47;;;;;;;7.20;3.80;;;;;;;7.39;100.00;100483.92;109447;1251;61040;-58
2023/10/10 05:43:24;;;;;;;6.60;3.90;;;;;;;7.54;100.00;100481.02;109468;1251;72638;-54
2023/10/10 05:45:51;;;;;;;7.10;3.90;;;;;;;7.62;100.00;100483.38;109466;1251;67060;-55
2023/10/10 05:48:19;;;;;;;6.90;4.30;;;;;;;7.64;100.00;100482.60;109490;1251;71098;-55
2023/10/10 05:50:48;;;;;;;9.20;6.40;;;;;;;7.72;100.00;100480.91;109381;1251;59259;-53
2023/10/10 05:53:16;;;;;;;13.30;8.60;;;;;;;7.81;100.00;100481.33;109505;1251;60945;-55
2023/10/10 05:55:50;;;;;;;9.70;6.30;;;;;;;7.94;100.00;100481.18;109437;1251;72630;-54
2023/10/10 05:58:19;;;;;;;11.30;8.10;;;;;;;8.06;100.00;100484.79;109516;1251;66957;-54
2023/10/10 06:00:48;;;;;;;15.40;9.10;;;;;;;8.17;100.00;100482.98;109406;1254;72735;-54
2023/10/10 06:03:17;;;;;;;10.80;8.10;;;;;;;8.32;100.00;100483.32;109465;1251;58074;-55
2023/10/10 06:05:45;;;;;;;12.80;7.30;;;;;;;8.49;100.00;100486.72;109480;1254;58788;-54
2023/10/10 06:08:13;;;;;;;8.70;5.40;;;;;;;8.74;100.00;100482.98;109467;1251;73100;-53
2023/10/10 06:10:41;;;;;;;7.60;4.70;;;;;;;9.10;100.00;100482.00;109233;1253;66872;-53
2023/10/10 06:13:11;;;;;;;7.40;4.60;;;;;;;9.46;100.00;100479.07;109281;1254;71445;-55
2023/10/10 06:15:39;;;;;;;6.80;3.90;;;;;;;9.78;100.00;100475.73;109283;1253;60194;-53
2023/10/10 06:18:18;;;;;;;5.70;3.70;;;;;;;9.98;100.00;100475.70;109277;1254;58909;-53
2023/10/10 06:20:47;;;;;;;6.60;4.10;;;;;;;10.30;100.00;100471.24;109215;1254;73872;-54
2023/10/10 06:23:35;;;;;;;5.60;3.00;;;;;;;10.79;100.00;100466.55;109273;1254;66985;-54
2023/10/10 06:26:04;;;;;;;4.90;3.00;;;;;;;11.20;100.00;100463.20;109118;1257;71498;-54
2023/10/10 06:28:45;;;;;;;4.60;3.00;;;;;;;11.49;100.00;100454.92;109157;1254;60080;-54
2023/10/10 06:31:32;;;;;;;5.00;2.90;;;;;;;11.82;100.00;100452.63;109164;1254;60139;-54
2023/10/10 06:33:59;;;;;;;5.10;3.30;;;;;;;12.15;100.00;100452.41;109189;1251;72502;-54
2023/10/10 06:36:34;;;;;;;5.10;3.40;;;;;;;12.45;100.00;100450.56;109469;1251;65597;-54
2023/10/10 06:41:42;;;;;;;6.20;3.40;;;;;;;13.16;98.42;100446.18;109459;1251;58460;-58
2023/10/10 06:44:13;;;;;;;4.50;3.10;;;;;;;13.32;92.54;100445.35;109434;1251;60074;-54
2023/10/10 06:46:46;;;;;;;5.30;2.90;;;;;;;13.47;88.73;100449.26;109489;1251;73905;-55
2023/10/10 06:49:14;;;;;;;7.90;3.40;;;;;;;13.57;85.56;100443.45;109303;1251;67013;-54
2023/10/10 06:51:42;;;;;;;6.90;3.90;;;;;;;13.72;83.23;100445.78;109263;1256;72667;-54
2023/10/10 06:54:21;;;;;;;6.10;2.90;;;;;;;13.86;81.03;100447.04;109176;1254;59345;-54
2023/10/10 06:57:04;;;;;;;4.50;3.10;;;;;;;14.08;78.54;100443.59;109089;1253;59616;-56
2023/10/10 06:59:32;;;;;;;5.80;3.30;;;;;;;14.16;71.87;100442.87;109240;1254;72656;-54
2023/10/10 07:02:01;;;;;;;4.70;2.90;;;;;;;14.14;72.79;100446.39;109176;1253;65678;-54
2023/10/10 07:04:29;;;;;;;5.40;3.20;;;;;;;14.24;74.06;100446.02;109232;1253;71456;-54
2023/10/10 07:07:00;;;;;;;4.40;2.60;;;;;;;14.36;73.20;100446.05;109159;1253;60619;-57
2023/10/10 07:09:29;;;;;;;5.00;2.70;;;;;;;14.49;73.96;100446.66;109228;1253;58835;-54
2023/10/10 07:12:09;;;;;;;5.50;2.90;;;;;;;14.64;72.28;100447.63;109287;1253;73913;-54
2023/10/10 07:14:43;;;;;;;5.60;3.40;;;;;;;14.80;70.14;100448.23;109283;1253;65712;-57
2023/10/10 07:17:12;;;;;;;6.10;3.10;;;;;;;14.90;70.28;100442.39;109240;1253;72786;-54
2023/10/10 07:22:33;;;;;;;6.40;3.40;;;;;;;15.41;69.22;100440.45;109188;1253;60090;-56
2023/10/10 07:25:07;;;;;;;4.70;2.90;;;;;;;15.64;65.43;100429.94;109225;1254;72584;-54
2023/10/10 07:27:39;;;;;;;4.60;2.60;;;;;;;15.80;64.13;100429.70;109272;1253;66110;-54
2023/10/10 07:30:17;;;;;;;5.10;3.00;;;;;;;15.85;61.44;100429.21;109286;1253;71464;-54
2023/10/10 07:32:48;;;;;;;13.00;3.40;;;;;;;15.79;60.37;100429.83;109241;1253;60616;-54
2023/10/10 07:35:19;;;;;;;4.80;2.50;;;;;;;15.72;59.62;100430.48;109284;1253;60027;-54
2023/10/10 07:37:47;;;;;;;4.80;3.40;;;;;;;15.68;62.12;100431.55;109267;1253;74380;-55
2023/10/10 07:42:51;;;;;;;4.40;2.30;;;;;;;16.02;59.25;100428.61;109242;1253;72221;-54
2023/10/10 07:45:33;;;;;;;4.20;2.40;;;;;;;16.14;57.06;100425.52;109227;1253;62375;-55
2023/10/10 07:50:46;;;;;;;5.10;3.50;;;;;;;16.66;54.87;100422.88;109257;1253;73941;-55
2023/10/10 07:53:15;;;;;;;8.80;5.50;;;;;;;17.02;52.96;100422.14;109294;1253;66961;-56
2023/10/10 07:58:29;;;;;;;3.00;1.80;;;;;;;17.27;48.28;100419.77;109212;1253;60474;-55
2023/10/10 08:01:17;;;;;;;3.80;2.10;;;;;;;17.03;47.32;100419.85;109197;1253;60123;-54
2023/10/10 08:03:45;;;;;;;4.50;2.20;;;;;;;16.80;48.14;100418.43;109298;1254;72647;-55
2023/10/10 08:06:18;;;;;;;4.40;2.20;;;;;;;16.66;49.74;100417.50;109329;1253;65513;-55
2023/10/10 08:08:56;;;;;;;4.90;2.90;;;;;;;16.55;49.98;100418.55;109256;1254;72676;-55
2023/10/10 08:11:35;;;;;;;3.60;2.00;;;;;;;16.31;49.08;100419.54;109273;1254;58114;-56
2023/10/10 08:14:08;;;;;;;4.00;1.60;;;;;;;16.06;49.23;100417.17;109397;1253;59314;-54
2023/10/10 08:16:38;;;;;;;2.50;1.20;;;;;;;15.68;48.54;100413.84;109268;1253;72649;-56
2023/10/10 08:19:10;;;;;;;3.50;1.40;;;;;;;15.38;50.49;100420.30;109350;1253;68210;-54
2023/10/10 08:21:39;;;;;;;2.80;1.50;;;;;;;15.22;51.32;100426.13;109257;1253;72758;-54
2023/10/10 08:24:08;;;;;;;3.40;1.40;;;;;;;15.02;51.01;100422.92;109225;1253;61213;-55
2023/10/10 08:26:39;;;;;;;2.70;1.20;;;;;;;14.87;52.59;100423.83;109243;1253;58833;-56
2023/10/10 08:29:11;;;;;;;4.60;1.20;;;;;;;14.86;53.60;100423.66;109347;1252;73853;-54
2023/10/10 08:31:40;;;;;;;4.10;1.90;;;;;;;15.02;55.35;100422.61;109240;1253;65652;-54
2023/10/10 08:34:08;;;;;;;5.90;3.40;;;;;;;15.37;55.85;100417.86;109270;1253;73179;-56
2023/10/10 08:36:37;;;;;;;3.90;1.20;;;;;;;15.75;53.25;100410.23;109256;1253;59192;-57
2023/10/10 08:39:49;;;;;;;2.60;0.90;;;;;;;16.09;49.82;100413.25;109374;1253;59149;-54
2023/10/10 08:41:55;;;;;;;1.40;0.50;;;;;;;16.18;46.06;100412.40;109222;1253;72654;-55
2023/10/10 08:44:23;;;;;;;2.10;0.80;;;;;;;16.06;45.21;100412.17;109139;1253;66988;-56
2023/10/10 08:46:52;;;;;;;2.40;1.30;;;;;;;15.97;45.51;100411.45;109120;1253;71491;-57
2023/10/10 08:49:19;;;;;;;3.40;1.10;;;;;;;15.92;45.19;100409.02;109315;1252;58885;-56
2023/10/10 08:51:48;;;;;;;4.60;2.30;;;;;;;15.91;46.30;100411.63;109288;1253;58816;-56
2023/10/10 08:54:16;;;;;;;1.90;0.80;;;;;;;15.99;46.16;100408.65;109259;1253;72567;-54
2023/10/10 08:57:00;;;;;;;3.10;1.00;;;;;;;16.05;45.43;100405.23;109298;1253;66959;-54
2023/10/10 08:59:30;;;;;;;3.40;1.30;;;;;;;16.01;44.55;100400.55;109261;1253;74512;-54
2023/10/10 09:02:08;;;;;;;2.00;0.80;;;;;;;15.87;44.29;100398.95;109218;1253;61549;-55
2023/10/10 09:04:36;;;;;;;2.80;0.80;;;;;;;15.80;44.62;100397.27;109325;1253;62138;-55
2023/10/10 09:07:08;;;;;;;2.00;1.00;;;;;;;15.90;45.17;100393.63;109143;1253;76153;-54
2023/10/10 09:09:54;;;;;;;1.80;0.70;;;;;;;16.01;45.58;100391.73;109309;1253;65960;-57
2023/10/10 09:12:23;;;;;;;3.90;1.50;;;;;;;16.12;45.25;100391.79;109246;1254;72943;-56
2023/10/10 09:14:51;;;;;;;5.50;2.90;;;;;;;16.13;44.86;100392.98;109090;1252;60240;-55
2023/10/10 09:17:32;;;;;;;8.00;3.30;;;;;;;15.90;43.11;100390.68;109295;1253;61171;-57
2023/10/10 09:22:51;;;;;;;1.60;0.60;;;;;;;15.46;45.28;100388.89;109313;1253;67076;-55
2023/10/10 09:25:31;;;;;;;2.30;1.00;;;;;;;15.74;46.15;100390.02;109080;1253;73284;-55
2023/10/10 09:28:00;;;;;;;3.70;2.00;;;;;;;16.04;44.89;100387.08;109242;1253;59105;-55
2023/10/10 09:30:32;;;;;;;5.80;2.80;;;;;;;16.18;44.96;100378.98;109259;1253;60097;-54
2023/10/10 09:36:09;;;;;;;4.40;1.40;;;;;;;16.44;44.37;100375.78;109195;1253;65922;-54
2023/10/10 09:38:45;;;;;;;2.20;0.70;;;;;;;16.33;42.91;100375.53;109318;1253;71400;-55
2023/10/10 09:47:13;;;;;;;2.10;0.70;;;;;;;15.39;44.37;100367.05;109216;1253;75002;-55
2023/10/10 09:50:00;;;;;;;1.40;0.70;;;;;;;15.19;44.80;100367.52;109379;1253;65818;-55
2023/10/10 10:06:34;;;;;;;2.80;1.10;;;;;;;14.57;46.85;100365.75;109315;1253;72697;-55
2023/10/10 10:09:37;;;;;;;5.20;0.80;;;;;;;14.40;46.86;100365.31;109272;1253;58888;-55
2023/10/10 10:12:30;;;;;;;2.20;1.10;;;;;;;14.21;47.46;100363.30;109312;1253;60873;-56
2023/10/10 10:15:08;;;;;;;4.30;1.70;;;;;;;14.15;49.03;100357.05;109065;1253;75356;-55
2023/10/10 10:18:13;;;;;;;3.80;1.40;;;;;;;14.26;49.65;100359.53;109338;1252;66945;-54
2023/10/10 10:20:47;;;;;;;3.50;0.70;;;;;;;14.55;49.80;100354.12;109222;1254;71422;-55
2023/10/10 10:23:25;;;;;;;3.10;1.20;;;;;;;14.87;49.67;100345.45;109396;1253;58840;-55
2023/10/10 10:25:54;;;;;;;4.00;1.00;;;;;;;15.34;49.19;100339.70;109348;1253;60245;-55
2023/10/10 10:28:28;;;;;;;4.60;0.80;;;;;;;15.78;47.52;100337.52;109228;1254;74427;-55
2023/10/10 10:30:56;;;;;;;3.20;0.90;;;;;;;16.05;45.10;100332.66;109261;1253;67064;-55
2023/10/10 10:33:23;;;;;;;2.40;0.80;;;;;;;16.12;44.25;100330.61;109284;1253;71806;-55
2023/10/10 10:35:56;;;;;;;2.00;0.60;;;;;;;15.99;43.72;100329.73;109245;1253;58858;-54
2023/10/10 10:38:25;;;;;;;1.30;0.50;;;;;;;15.74;44.05;100325.95;109325;1253;58894;-54
2023/10/10 10:41:15;;;;;;;2.30;0.80;;;;;;;15.43;44.67;100331.30;109307;1253;75896;-54
2023/10/10 10:43:49;;;;;;;1.90;0.60;;;;;;;15.09;44.39;100329.14;109273;1253;66324;-57
2023/10/10 10:46:27;;;;;;;3.20;1.00;;;;;;;14.88;43.98;100330.58;109273;1253;70648;-55
2023/10/10 10:49:02;;;;;;;1.90;1.00;;;;;;;14.66;44.80;100330.33;109312;1253;60164;-54
2023/10/10 10:51:41;;;;;;;3.30;0.70;;;;;;;14.50;46.23;100328.39;109245;1253;60244;-58
2023/10/10 10:54:29;;;;;;;2.40;0.80;;;;;;;14.44;46.58;100325.92;109344;1253;72648;-55
2023/10/10 10:57:02;;;;;;;2.50;0.60;;;;;;;14.51;46.94;100322.30;109315;1253;66224;-55
2023/10/10 10:59:38;;;;;;;2.10;0.80;;;;;;;14.72;45.71;100319.93;109348;1253;72731;-55
2023/10/10 11:02:16;;;;;;;2.30;0.90;;;;;;;14.94;44.43;100315.91;109322;1253;58860;-55
2023/10/10 11:04:49;;;;;;;2.40;0.80;;;;;;;15.19;43.96;100312.05;109309;1253;60027;-56
2023/10/10 11:07:26;;;;;;;3.30;1.10;;;;;;;15.43;42.59;100316.46;109302;1253;76260;-54
2023/10/10 11:09:54;;;;;;;4.20;1.10;;;;;;;15.52;41.06;100311.13;109051;1253;65919;-55
2023/10/10 11:12:31;;;;;;;2.50;1.00;;;;;;;15.54;40.84;100311.48;109265;1252;72813;-55
2023/10/10 11:15:10;;;;;;;3.80;1.20;;;;;;;15.53;40.76;100307.45;109118;1253;58885;-54
2023/10/10 11:17:39;;;;;;;2.40;0.90;;;;;;;15.48;40.66;100306.52;109084;1253;62385;-55
2023/10/10 11:20:26;;;;;;;4.00;1.30;;;;;;;15.32;41.26;100306.70;109142;1252;74935;-57
2023/10/10 11:22:56;;;;;;;2.70;1.10;;;;;;;15.18;41.79;100306.60;109350;1252;66946;-55
2023/10/10 11:25:41;;;;;;;3.80;1.10;;;;;;;15.21;42.56;100308.03;109310;1253;70741;-55
2023/10/10 11:28:21;;;;;;;5.20;2.40;;;;;;;15.42;42.50;100302.27;109093;1254;60066;-55
2023/10/10 11:30:50;;;;;;;4.00;1.70;;;;;;;15.56;41.52;100297.77;109360;1253;62337;-55
2023/10/10 11:34:09;;;;;;;5.80;2.40;;;;;;;15.52;41.23;100298.93;109344;1253;74057;-54
2023/10/10 11:36:37;;;;;;;1.60;0.50;;;;;;;15.20;40.60;100302.95;109270;1253;67908;-54
2023/10/10 11:39:34;;;;;;;1.70;0.60;;;;;;;14.83;40.79;100304.58;109271;1253;71467;-54
2023/10/10 11:42:07;;;;;;;7.10;3.30;;;;;;;14.52;42.34;100305.95;109318;1253;62862;-53
2023/10/10 11:44:35;;;;;;;5.30;2.40;;;;;;;14.32;43.03;100307.61;109173;1253;60829;-54
2023/10/10 11:47:07;;;;;;;2.90;0.90;;;;;;;14.15;43.32;100309.17;109104;1251;74910;-54
2023/10/10 11:49:35;;;;;;;1.60;0.50;;;;;;;13.95;44.04;100309.00;109214;1253;65965;-55
2023/10/10 11:52:04;;;;;;;1.70;0.50;;;;;;;13.76;44.19;100314.10;109282;1253;71761;-53
2023/10/10 11:54:31;;;;;;;2.10;0.70;;;;;;;13.56;44.50;100314.94;109238;1253;62219;-56
2023/10/10 11:56:59;;;;;;;1.60;0.60;;;;;;;13.37;45.77;100318.44;109199;1253;61883;-56
2023/10/10 11:59:27;;;;;;;3.30;0.70;;;;;;;13.24;46.31;100317.80;109319;1253;74740;-55
2023/10/10 12:02:07;;;;;;;2.90;1.00;;;;;;;13.14;46.89;100318.71;109293;1253;68042;-55
2023/10/10 12:04:37;;;;;;;2.80;1.30;;;;;;;13.01;46.85;100314.14;109237;1253;75345;-55
2023/10/10 12:07:05;;;;;;;3.30;1.30;;;;;;;12.90;46.93;100315.84;109269;1253;61479;-55
2023/10/10 12:09:34;;;;;;;3.70;1.80;;;;;;;12.73;47.55;100313.33;109284;1253;58885;-55
2023/10/10 12:12:03;;;;;;;5.20;2.00;;;;;;;12.61;48.98;100314.21;109220;1253;75611;-55
2023/10/10 12:14:31;;;;;;;3.30;1.30;;;;;;;12.59;50.16;100307.96;109205;1253;66348;-55
2023/10/10 12:17:00;;;;;;;3.20;1.10;;;;;;;12.73;50.50;100305.40;109263;1253;71376;-55
2023/10/10 12:19:36;;;;;;;3.40;1.60;;;;;;;12.82;50.67;100306.85;109198;1253;58883;-55
2023/10/10 12:22:10;;;;;;;2.50;0.90;;;;;;;12.88;49.47;100305.86;109129;1252;60315;-58
2023/10/10 12:24:41;;;;;;;2.30;0.80;;;;;;;12.88;47.57;100305.93;109055;1253;200152;-55
2023/10/10 12:27:09;;;;;;;7.50;3.20;;;;;;;12.75;47.31;100307.49;109287;1253;68387;-55
2023/10/10 12:29:40;;;;;;;8.00;4.20;;;;;;;12.59;47.68;100306.30;109235;1253;71776;-55
2023/10/10 12:32:34;;;;;;;6.60;3.40;;;;;;;12.46;48.81;100305.48;109191;1254;62890;-55
2023/10/10 12:34:59;;;;;;;5.30;2.50;;;;;;;12.30;50.43;100302.59;109337;1254;62103;-55
2023/10/10 12:37:27;;;;;;;3.60;1.10;;;;;;;12.37;51.22;100301.21;109319;1253;72649;-55
2023/10/10 12:39:55;;;;;;;2.50;0.90;;;;;;;12.41;52.37;100299.11;109197;1253;68535;-55
2023/10/10 12:42:23;;;;;;;3.40;1.10;;;;;;;12.54;54.38;100304.97;109161;1254;73605;-56
2023/10/10 12:44:50;;;;;;;2.70;1.30;;;;;;;12.73;53.38;100300.10;109202;1253;61491;-55
2023/10/10 12:47:19;;;;;;;4.20;1.40;;;;;;;12.79;51.25;100301.08;109259;1253;61398;-55
2023/10/10 12:49:47;;;;;;;7.80;3.60;;;;;;;12.72;50.24;100304.06;109231;1253;73997;-55
2023/10/10 12:52:17;;;;;;;5.80;2.10;;;;;;;12.61;50.74;100308.13;109264;1253;67566;-55
2023/10/10 12:54:47;;;;;;;3.50;1.30;;;;;;;12.49;51.07;100310.48;109267;1253;73697;-56
2023/10/10 12:57:15;;;;;;;3.30;1.40;;;;;;;12.39;52.24;100312.21;109236;1255;58799;-55
2023/10/10 12:59:46;;;;;;;2.60;1.00;;;;;;;12.30;52.81;100310.30;109257;1253;60152;-57
2023/10/10 13:02:15;;;;;;;3.40;1.40;;;;;;;12.21;53.50;100311.83;109265;1253;75026;-55
2023/10/10 13:04:46;;;;;;;3.30;1.60;;;;;;;12.04;54.38;100310.55;109370;1253;66047;-55
2023/10/10 13:07:18;;;;;;;3.70;1.70;;;;;;;11.86;55.41;100315.52;109242;1254;72699;-55
2023/10/10 13:09:46;;;;;;;3.80;1.50;;;;;;;11.68;57.31;100325.65;109230;1253;58946;-55
2023/10/10 13:12:27;;;;;;;2.80;1.00;;;;;;;11.47;59.26;100322.25;109245;1253;62105;-55
2023/10/10 13:15:16;;;;;;;3.00;1.00;;;;;;;11.26;62.55;100329.40;109269;1253;76073;-55
2023/10/10 13:20:43;;;;;;;5.90;2.30;;;;;;;10.78;72.92;100325.02;108966;1253;71907;-55
2023/10/10 13:23:12;;;;;;;5.00;2.50;;;;;;;10.61;74.38;100326.66;109026;1253;61313;-55
2023/10/10 13:25:39;;;;;;;5.80;2.40;;;;;;;10.45;76.59;100328.17;109221;1253;58831;-55
2023/10/10 13:28:09;;;;;;;12.20;5.90;;;;;;;10.31;80.15;100331.10;109250;1253;76310;-54
2023/10/10 13:30:38;;;;;;;13.50;5.20;;;;;;;10.20;83.83;100329.88;109234;1253;67098;-55
2023/10/10 13:33:07;;;;;;;12.00;4.60;;;;;;;10.12;86.91;100331.17;109170;1253;71416;-57
2023/10/10 13:35:37;;;;;;;3.30;1.10;;;;;;;10.06;90.22;100332.40;109196;1253;58514;-54
2023/10/10 13:38:05;;;;;;;3.20;1.20;;;;;;;10.02;91.03;100331.34;109235;1253;60284;-55
2023/10/10 13:40:48;;;;;;;3.80;1.70;;;;;;;9.98;91.56;100329.83;109213;1253;76366;-55
2023/10/10 13:43:17;;;;;;;4.10;2.00;;;;;;;9.96;93.94;100329.77;109280;1253;65674;-55
2023/10/10 13:45:48;;;;;;;4.80;2.40;;;;;;;9.90;96.08;100330.42;109240;1253;72697;-55
2023/10/10 13:48:18;;;;;;;15.40;8.50;;;;;;;9.83;98.86;100331.80;109151;1255;61537;-55
2023/10/10 13:50:47;;;;;;;11.60;6.50;;;;;;;9.75;100.00;100334.63;109121;1254;59437;-54
2023/10/10 13:53:20;;;;;;;17.90;9.40;;;;;;;9.68;100.00;100335.37;109150;1254;73956;-55
2023/10/10 13:55:48;;;;;;;11.20;6.00;;;;;;;9.62;100.00;100335.67;109167;1254;69577;-54
2023/10/10 13:58:16;;;;;;;9.80;5.00;;;;;;;9.58;100.00;100338.92;109149;1254;72662;-54
2023/10/10 14:00:55;;;;;;;24.20;14.10;;;;;;;9.55;100.00;100339.86;109078;1254;61329;-54
2023/10/10 14:03:29;;;;;;;33.60;18.00;;;;;;;9.49;100.00;100339.58;109241;1253;62330;-55
2023/10/10 14:06:00;;;;;;;30.10;17.80;;;;;;;9.44;100.00;100340.39;109245;1253;75960;-54
2023/10/10 14:08:30;;;;;;;36.00;19.20;;;;;;;9.36;100.00;100339.82;109310;1253;67129;-54
2023/10/10 14:10:59;;;;;;;40.40;19.80;;;;;;;9.28;100.00;100343.79;109291;1253;74109;-54
2023/10/10 14:13:28;;;;;;;29.70;17.10;;;;;;;9.16;100.00;100347.98;109243;1254;61056;-54
2023/10/10 14:15:58;;;;;;;28.50;15.80;;;;;;;9.05;100.00;100351.48;109213;1254;58737;-57
2023/10/10 14:18:27;;;;;;;40.80;21.40;;;;;;;8.93;100.00;100354.24;109212;1255;72657;-54
2023/10/10 14:20:55;;;;;;;29.60;18.10;;;;;;;8.81;100.00;100354.56;109156;1254;65511;-54
2023/10/10 14:23:24;;;;;;;22.40;13.60;;;;;;;8.69;100.00;100360.65;109153;1254;72767;-55
2023/10/10 14:25:52;;;;;;;21.20;11.40;;;;;;;8.61;100.00;100361.11;109203;1254;58147;-55
2023/10/10 14:28:19;;;;;;;15.50;9.40;;;;;;;8.52;100.00;100359.92;109208;1253;58839;-55
2023/10/10 14:30:50;;;;;;;18.10;10.40;;;;;;;8.43;100.00;100361.05;109215;1253;73866;-55
2023/10/10 14:33:18;;;;;;;17.30;9.80;;;;;;;8.33;100.00;100361.50;109231;1254;66121;-55
2023/10/10 14:35:46;;;;;;;20.20;10.50;;;;;;;8.23;100.00;100364.36;109195;1253;72780;-56